sensor_id;sensor_type;location;lat;lon;timestamp;pressure;altitude;pressure_sealevel;temperature;humidity
37778;BME280;23615;51.506;7.678;2023-03-04T00:00:30;100881.28;;;2.98;93.01
37778;BME280;23615;51.506;7.678;2023-03-04T00:02:55;100885.25;;;3.03;92.82
37778;BME280;23615;51.506;7.678;2023-03-04T00:05:20;100884.66;;;3.09;93.33
37778;BME280;23615;51.506;7.678;2023-03-04T00:07:46;100881.69;;;3.12;92.36
37778;BME280;23615;51.506;7.678;2023-03-04T00:10:11;100887.53;;;3.23;92.71
37778;BME280;23615;51.506;7.678;2023-03-04T00:12:36;100884.59;;;3.26;91.97
37778;BME280;23615;51.506;7.678;2023-03-04T00:15:02;100878.97;;;3.21;91.72
37778;BME280;23615;51.506;7.678;2023-03-04T00:17:27;100875.63;;;3.19;91.76
37778;BME280;23615;51.506;7.678;2023-03-04T00:19:55;100876.16;;;3.23;92.08
37778;BME280;23615;51.506;7.678;2023-03-04T00:22:20;100881.75;;;3.20;92.04
37778;BME280;23615;51.506;7.678;2023-03-04T00:24:46;100869.28;;;3.30;91.60
37778;BME280;23615;51.506;7.678;2023-03-04T00:27:11;100866.53;;;3.39;90.88
37778;BME280;23615;51.506;7.678;2023-03-04T00:29:36;100884.22;;;3.47;91.19
37778;BME280;23615;51.506;7.678;2023-03-04T00:32:02;100873.78;;;3.37;91.02
37778;BME280;23615;51.506;7.678;2023-03-04T00:34:27;100869.50;;;3.36;91.51
37778;BME280;23615;51.506;7.678;2023-03-04T00:36:52;100871.47;;;3.34;91.82
37778;BME280;23615;51.506;7.678;2023-03-04T00:39:18;100864.16;;;3.28;91.97
37778;BME280;23615;51.506;7.678;2023-03-04T00:41:43;100868.16;;;3.32;91.27
37778;BME280;23615;51.506;7.678;2023-03-04T00:44:11;100870.53;;;3.44;91.15
37778;BME280;23615;51.506;7.678;2023-03-04T00:46:36;100870.38;;;3.45;91.35
37778;BME280;23615;51.506;7.678;2023-03-04T00:49:01;100866.53;;;3.39;91.26
37778;BME280;23615;51.506;7.678;2023-03-04T00:51:27;100865.88;;;3.37;91.70
37778;BME280;23615;51.506;7.678;2023-03-04T00:53:52;100869.03;;;3.41;91.34
37778;BME280;23615;51.506;7.678;2023-03-04T00:56:17;100862.25;;;3.38;91.24
37778;BME280;23615;51.506;7.678;2023-03-04T00:58:43;100866.72;;;3.46;90.94
37778;BME280;23615;51.506;7.678;2023-03-04T01:01:08;100859.66;;;3.47;90.68
37778;BME280;23615;51.506;7.678;2023-03-04T01:03:33;100858.09;;;3.62;89.97
37778;BME280;23615;51.506;7.678;2023-03-04T01:05:59;100856.75;;;4.00;88.93
37778;BME280;23615;51.506;7.678;2023-03-04T01:08:25;100858.75;;;4.06;88.66
37778;BME280;23615;51.506;7.678;2023-03-04T01:10:51;100856.41;;;3.95;88.32
37778;BME280;23615;51.506;7.678;2023-03-04T01:13:16;100847.09;;;3.83;89.03
37778;BME280;23615;51.506;7.678;2023-03-04T01:15:41;100853.06;;;3.85;88.89
37778;BME280;23615;51.506;7.678;2023-03-04T01:18:07;100858.81;;;3.72;89.71
37778;BME280;23615;51.506;7.678;2023-03-04T01:20:32;100860.53;;;3.89;89.16
37778;BME280;23615;51.506;7.678;2023-03-04T01:22:57;100860.13;;;3.76;88.46
37778;BME280;23615;51.506;7.678;2023-03-04T01:25:23;100855.25;;;3.89;88.86
37778;BME280;23615;51.506;7.678;2023-03-04T01:27:48;100842.72;;;3.91;88.06
37778;BME280;23615;51.506;7.678;2023-03-04T01:30:13;100841.81;;;3.74;88.41
37778;BME280;23615;51.506;7.678;2023-03-04T01:32:39;100834.88;;;3.73;88.61
37778;BME280;23615;51.506;7.678;2023-03-04T01:35:04;100836.38;;;3.76;88.85
37778;BME280;23615;51.506;7.678;2023-03-04T01:37:30;100841.84;;;3.83;89.02
37778;BME280;23615;51.506;7.678;2023-03-04T01:39:55;100833.00;;;4.00;88.97
37778;BME280;23615;51.506;7.678;2023-03-04T01:42:22;100834.00;;;4.07;87.42
37778;BME280;23615;51.506;7.678;2023-03-04T01:44:49;100830.53;;;4.06;87.47
37778;BME280;23615;51.506;7.678;2023-03-04T01:47:15;100828.22;;;4.03;88.13
37778;BME280;23615;51.506;7.678;2023-03-04T01:49:41;100819.13;;;3.98;88.19
37778;BME280;23615;51.506;7.678;2023-03-04T01:52:11;100822.75;;;3.97;88.13
37778;BME280;23615;51.506;7.678;2023-03-04T01:54:37;100827.06;;;3.98;88.54
37778;BME280;23615;51.506;7.678;2023-03-04T01:57:12;100815.13;;;3.86;88.51
37778;BME280;23615;51.506;7.678;2023-03-04T01:59:39;100812.16;;;3.81;88.25
37778;BME280;23615;51.506;7.678;2023-03-04T02:02:04;100825.22;;;3.90;88.74
37778;BME280;23615;51.506;7.678;2023-03-04T02:04:31;100813.28;;;3.78;88.76
37778;BME280;23615;51.506;7.678;2023-03-04T02:06:59;100814.78;;;3.72;89.15
37778;BME280;23615;51.506;7.678;2023-03-04T02:09:25;100814.09;;;3.70;89.90
37778;BME280;23615;51.506;7.678;2023-03-04T02:11:51;100813.28;;;3.70;89.52
37778;BME280;23615;51.506;7.678;2023-03-04T02:14:17;100821.53;;;3.75;89.52
37778;BME280;23615;51.506;7.678;2023-03-04T02:16:43;100820.69;;;3.74;89.14
37778;BME280;23615;51.506;7.678;2023-03-04T02:19:31;100812.47;;;3.78;89.50
37778;BME280;23615;51.506;7.678;2023-03-04T02:22:00;100809.06;;;4.01;88.95
37778;BME280;23615;51.506;7.678;2023-03-04T02:24:34;100808.41;;;3.99;87.88
37778;BME280;23615;51.506;7.678;2023-03-04T02:27:00;100807.06;;;3.95;88.50
37778;BME280;23615;51.506;7.678;2023-03-04T02:29:27;100810.88;;;4.01;87.74
37778;BME280;23615;51.506;7.678;2023-03-04T02:31:53;100809.00;;;3.77;88.53
37778;BME280;23615;51.506;7.678;2023-03-04T02:34:21;100803.91;;;3.84;88.31
37778;BME280;23615;51.506;7.678;2023-03-04T02:36:48;100803.25;;;3.82;89.28
37778;BME280;23615;51.506;7.678;2023-03-04T02:39:29;100807.59;;;3.99;88.53
37778;BME280;23615;51.506;7.678;2023-03-04T02:41:56;100812.22;;;4.05;88.06
37778;BME280;23615;51.506;7.678;2023-03-04T02:44:33;100799.16;;;4.03;89.16
37778;BME280;23615;51.506;7.678;2023-03-04T02:46:59;100803.63;;;4.11;87.46
37778;BME280;23615;51.506;7.678;2023-03-04T02:49:27;100801.19;;;4.09;87.87
37778;BME280;23615;51.506;7.678;2023-03-04T02:54:27;100793.19;;;3.93;88.94
37778;BME280;23615;51.506;7.678;2023-03-04T02:56:55;100782.00;;;3.91;88.51
37778;BME280;23615;51.506;7.678;2023-03-04T02:59:21;100798.47;;;3.93;88.60
37778;BME280;23615;51.506;7.678;2023-03-04T03:01:47;100787.78;;;4.03;88.42
37778;BME280;23615;51.506;7.678;2023-03-04T03:04:12;100791.59;;;4.08;88.60
37778;BME280;23615;51.506;7.678;2023-03-04T03:06:38;100786.94;;;3.94;88.26
37778;BME280;23615;51.506;7.678;2023-03-04T03:09:05;100781.66;;;3.86;88.39
37778;BME280;23615;51.506;7.678;2023-03-04T03:11:30;100782.81;;;3.92;88.60
37778;BME280;23615;51.506;7.678;2023-03-04T03:13:56;100776.88;;;3.82;89.63
37778;BME280;23615;51.506;7.678;2023-03-04T03:16:22;100773.91;;;4.01;88.23
37778;BME280;23615;51.506;7.678;2023-03-04T03:18:47;100779.50;;;3.82;89.41
37778;BME280;23615;51.506;7.678;2023-03-04T03:21:13;100773.41;;;3.81;89.45
37778;BME280;23615;51.506;7.678;2023-03-04T03:23:38;100775.09;;;3.98;89.57
37778;BME280;23615;51.506;7.678;2023-03-04T03:26:04;100768.47;;;4.10;87.98
37778;BME280;23615;51.506;7.678;2023-03-04T03:28:30;100766.50;;;3.96;88.20
37778;BME280;23615;51.506;7.678;2023-03-04T03:30:55;100769.94;;;3.89;89.05
37778;BME280;23615;51.506;7.678;2023-03-04T03:33:20;100773.91;;;4.01;88.89
37778;BME280;23615;51.506;7.678;2023-03-04T03:35:46;100769.44;;;3.93;89.49
37778;BME280;23615;51.506;7.678;2023-03-04T03:38:11;100766.66;;;3.95;88.92
37778;BME280;23615;51.506;7.678;2023-03-04T03:40:36;100767.16;;;3.98;89.07
37778;BME280;23615;51.506;7.678;2023-03-04T03:43:02;100764.16;;;3.93;88.60
37778;BME280;23615;51.506;7.678;2023-03-04T03:45:27;100762.19;;;3.95;89.52
37778;BME280;23615;51.506;7.678;2023-03-04T03:47:53;100764.53;;;3.98;88.42
37778;BME280;23615;51.506;7.678;2023-03-04T03:50:18;100762.56;;;4.17;88.19
37778;BME280;23615;51.506;7.678;2023-03-04T03:52:43;100758.28;;;4.16;87.81
37778;BME280;23615;51.506;7.678;2023-03-04T03:55:09;100756.44;;;4.00;88.25
37778;BME280;23615;51.506;7.678;2023-03-04T03:57:34;100760.41;;;4.20;88.65
37778;BME280;23615;51.506;7.678;2023-03-04T04:00:00;100757.59;;;4.05;88.86
37778;BME280;23615;51.506;7.678;2023-03-04T04:02:25;100770.13;;;4.03;89.04
37778;BME280;23615;51.506;7.678;2023-03-04T04:04:50;100760.88;;;3.91;88.63
37778;BME280;23615;51.506;7.678;2023-03-04T04:07:16;100747.88;;;4.06;89.01
37778;BME280;23615;51.506;7.678;2023-03-04T04:09:41;100759.09;;;4.08;88.32
37778;BME280;23615;51.506;7.678;2023-03-04T04:12:06;100756.78;;;4.05;88.78
37778;BME280;23615;51.506;7.678;2023-03-04T04:14:32;100754.28;;;4.03;88.41
37778;BME280;23615;51.506;7.678;2023-03-04T04:16:58;100752.31;;;3.97;88.95
37778;BME280;23615;51.506;7.678;2023-03-04T04:19:24;100755.13;;;4.04;89.00
37778;BME280;23615;51.506;7.678;2023-03-04T04:21:49;100753.66;;;4.09;88.33
37778;BME280;23615;51.506;7.678;2023-03-04T04:24:15;100755.28;;;4.02;87.95
37778;BME280;23615;51.506;7.678;2023-03-04T04:26:41;100755.47;;;4.17;88.61
37778;BME280;23615;51.506;7.678;2023-03-04T04:29:07;100746.41;;;4.28;87.60
37778;BME280;23615;51.506;7.678;2023-03-04T04:31:33;100750.66;;;4.12;88.31
37778;BME280;23615;51.506;7.678;2023-03-04T04:33:58;100742.91;;;4.11;88.31
37778;BME280;23615;51.506;7.678;2023-03-04T04:36:23;100740.59;;;4.08;88.92
37778;BME280;23615;51.506;7.678;2023-03-04T04:38:48;100756.59;;;3.98;89.42
37778;BME280;23615;51.506;7.678;2023-03-04T04:41:20;100753.97;;;4.06;88.87
37778;BME280;23615;51.506;7.678;2023-03-04T04:43:46;100756.09;;;4.11;88.27
37778;BME280;23615;51.506;7.678;2023-03-04T04:46:11;100752.31;;;4.22;88.00
37778;BME280;23615;51.506;7.678;2023-03-04T04:48:36;100762.22;;;4.20;88.28
37778;BME280;23615;51.506;7.678;2023-03-04T04:51:02;100755.78;;;4.06;89.19
37778;BME280;23615;51.506;7.678;2023-03-04T04:53:27;100765.00;;;3.94;88.82
37778;BME280;23615;51.506;7.678;2023-03-04T04:55:52;100769.50;;;4.18;87.13
37778;BME280;23615;51.506;7.678;2023-03-04T04:58:18;100761.91;;;4.39;86.95
37778;BME280;23615;51.506;7.678;2023-03-04T05:00:43;100761.06;;;4.30;87.54
37778;BME280;23615;51.506;7.678;2023-03-04T05:03:08;100757.75;;;4.20;87.76
37778;BME280;23615;51.506;7.678;2023-03-04T05:05:34;100771.63;;;3.98;88.95
37778;BME280;23615;51.506;7.678;2023-03-04T05:07:59;100763.84;;;3.96;89.56
37778;BME280;23615;51.506;7.678;2023-03-04T05:10:24;100757.59;;;4.05;88.89
37778;BME280;23615;51.506;7.678;2023-03-04T05:12:49;100759.94;;;4.33;88.53
37778;BME280;23615;51.506;7.678;2023-03-04T05:15:15;100763.22;;;4.19;88.82
37778;BME280;23615;51.506;7.678;2023-03-04T05:17:40;100752.31;;;4.30;88.40
37778;BME280;23615;51.506;7.678;2023-03-04T05:20:07;100763.56;;;4.16;89.30
37778;BME280;23615;51.506;7.678;2023-03-04T05:22:33;100763.03;;;4.04;89.00
37778;BME280;23615;51.506;7.678;2023-03-04T05:24:58;100757.59;;;3.97;89.50
37778;BME280;23615;51.506;7.678;2023-03-04T05:27:23;100757.59;;;4.05;89.84
37778;BME280;23615;51.506;7.678;2023-03-04T05:29:48;100752.00;;;4.08;90.28
37778;BME280;23615;51.506;7.678;2023-03-04T05:32:14;100753.81;;;4.08;89.45
37778;BME280;23615;51.506;7.678;2023-03-04T05:34:39;100756.09;;;4.03;89.80
37778;BME280;23615;51.506;7.678;2023-03-04T05:37:04;100754.63;;;4.00;90.21
37778;BME280;23615;51.506;7.678;2023-03-04T05:39:30;100745.06;;;3.99;90.15
37778;BME280;23615;51.506;7.678;2023-03-04T05:41:55;100748.53;;;4.00;89.17
37778;BME280;23615;51.506;7.678;2023-03-04T05:44:20;100749.19;;;4.26;89.13
37778;BME280;23615;51.506;7.678;2023-03-04T05:46:46;100759.41;;;3.97;88.85
37778;BME280;23615;51.506;7.678;2023-03-04T05:49:11;100755.28;;;4.10;88.53
37778;BME280;23615;51.506;7.678;2023-03-04T05:51:36;100761.72;;;4.08;88.84
37778;BME280;23615;51.506;7.678;2023-03-04T05:54:01;100760.09;;;4.23;89.13
37778;BME280;23615;51.506;7.678;2023-03-04T05:56:27;100757.59;;;4.05;89.44
37778;BME280;23615;51.506;7.678;2023-03-04T05:58:56;100756.59;;;3.98;89.68
37778;BME280;23615;51.506;7.678;2023-03-04T06:01:22;100758.06;;;4.01;90.33
37778;BME280;23615;51.506;7.678;2023-03-04T06:03:47;100771.63;;;4.06;90.03
37778;BME280;23615;51.506;7.678;2023-03-04T06:06:13;100769.13;;;3.96;90.06
37778;BME280;23615;51.506;7.678;2023-03-04T06:08:38;100754.63;;;4.00;90.73
37778;BME280;23615;51.506;7.678;2023-03-04T06:11:04;100768.81;;;3.99;91.06
37778;BME280;23615;51.506;7.678;2023-03-04T06:13:30;100762.56;;;4.00;90.72
37778;BME280;23615;51.506;7.678;2023-03-04T06:15:57;100767.00;;;4.08;90.66
37778;BME280;23615;51.506;7.678;2023-03-04T06:18:23;100774.28;;;4.14;90.61
37778;BME280;23615;51.506;7.678;2023-03-04T06:20:49;100779.03;;;4.10;90.56
37778;BME280;23615;51.506;7.678;2023-03-04T06:23:14;100786.47;;;4.07;91.03
37778;BME280;23615;51.506;7.678;2023-03-04T06:25:39;100781.69;;;4.10;90.41
37778;BME280;23615;51.506;7.678;2023-03-04T06:28:05;100779.38;;;4.07;90.97
37778;BME280;23615;51.506;7.678;2023-03-04T06:30:30;100775.25;;;4.21;90.55
37778;BME280;23615;51.506;7.678;2023-03-04T06:32:55;100783.34;;;4.11;90.15
37778;BME280;23615;51.506;7.678;2023-03-04T06:35:21;100789.78;;;4.09;91.40
37778;BME280;23615;51.506;7.678;2023-03-04T06:37:46;100785.34;;;4.09;91.52
37778;BME280;23615;51.506;7.678;2023-03-04T06:40:12;100782.56;;;4.27;90.78
37778;BME280;23615;51.506;7.678;2023-03-04T06:42:38;100783.03;;;4.39;90.44
37778;BME280;23615;51.506;7.678;2023-03-04T06:45:05;100786.00;;;4.52;89.69
37778;BME280;23615;51.506;7.678;2023-03-04T06:47:31;100783.03;;;4.39;89.34
37778;BME280;23615;51.506;7.678;2023-03-04T06:49:56;100789.97;;;4.24;90.81
37778;BME280;23615;51.506;7.678;2023-03-04T06:52:21;100792.28;;;4.19;91.24
37778;BME280;23615;51.506;7.678;2023-03-04T06:54:47;100791.25;;;4.11;91.83
37778;BME280;23615;51.506;7.678;2023-03-04T06:57:12;100795.09;;;4.25;91.66
37778;BME280;23615;51.506;7.678;2023-03-04T06:59:38;100794.41;;;4.31;90.89
37778;BME280;23615;51.506;7.678;2023-03-04T07:02:03;100801.19;;;4.34;91.21
37778;BME280;23615;51.506;7.678;2023-03-04T07:04:28;100789.97;;;4.40;90.90
37778;BME280;23615;51.506;7.678;2023-03-04T07:06:54;100797.91;;;4.40;90.93
37778;BME280;23615;51.506;7.678;2023-03-04T07:09:19;100801.81;;;4.20;91.78
37778;BME280;23615;51.506;7.678;2023-03-04T07:11:44;100795.91;;;4.18;91.54
37778;BME280;23615;51.506;7.678;2023-03-04T07:14:10;100797.72;;;4.09;92.43
37778;BME280;23615;51.506;7.678;2023-03-04T07:16:36;100801.50;;;4.23;91.95
37778;BME280;23615;51.506;7.678;2023-03-04T07:19:02;100802.50;;;4.30;92.05
37778;BME280;23615;51.506;7.678;2023-03-04T07:21:27;100806.81;;;4.31;92.27
37778;BME280;23615;51.506;7.678;2023-03-04T07:23:53;100795.56;;;4.29;90.69
37778;BME280;23615;51.506;7.678;2023-03-04T07:26:18;100809.59;;;4.37;91.24
37778;BME280;23615;51.506;7.678;2023-03-04T07:28:44;100807.31;;;4.42;90.35
37778;BME280;23615;51.506;7.678;2023-03-04T07:33:37;100826.78;;;4.25;92.12
37778;BME280;23615;51.506;7.678;2023-03-04T07:36:03;100820.69;;;4.33;92.64
37778;BME280;23615;51.506;7.678;2023-03-04T07:38:28;100815.91;;;4.61;91.58
37778;BME280;23615;51.506;7.678;2023-03-04T07:40:56;100816.72;;;4.69;90.69
37778;BME280;23615;51.506;7.678;2023-03-04T07:43:21;100810.94;;;4.66;90.96
37778;BME280;23615;51.506;7.678;2023-03-04T07:45:46;100811.28;;;4.63;90.93
37778;BME280;23615;51.506;7.678;2023-03-04T07:48:12;100813.91;;;4.46;91.81
37778;BME280;23615;51.506;7.678;2023-03-04T07:50:37;100815.75;;;4.54;92.55
37778;BME280;23615;51.506;7.678;2023-03-04T07:53:02;100817.25;;;4.73;91.75
37778;BME280;23615;51.506;7.678;2023-03-04T07:55:28;100809.47;;;4.71;92.18
37778;BME280;23615;51.506;7.678;2023-03-04T07:57:55;100812.94;;;4.72;92.38
37778;BME280;23615;51.506;7.678;2023-03-04T08:00:21;100815.59;;;4.72;92.35
37778;BME280;23615;51.506;7.678;2023-03-04T08:02:46;100818.69;;;4.75;92.75
37778;BME280;23615;51.506;7.678;2023-03-04T08:05:11;100813.41;;;4.75;91.99
37778;BME280;23615;51.506;7.678;2023-03-04T08:07:37;100811.59;;;4.68;92.16
37778;BME280;23615;51.506;7.678;2023-03-04T08:10:02;100817.38;;;4.79;91.97
37778;BME280;23615;51.506;7.678;2023-03-04T08:12:28;100811.75;;;4.74;92.57
37778;BME280;23615;51.506;7.678;2023-03-04T08:14:54;100807.97;;;4.69;93.26
37778;BME280;23615;51.506;7.678;2023-03-04T08:17:19;100802.84;;;4.43;93.76
37778;BME280;23615;51.506;7.678;2023-03-04T08:19:45;100807.31;;;4.50;93.72
37778;BME280;23615;51.506;7.678;2023-03-04T08:22:10;100806.81;;;4.47;94.78
37778;BME280;23615;51.506;7.678;2023-03-04T08:24:36;100811.78;;;4.50;94.50
37778;BME280;23615;51.506;7.678;2023-03-04T08:27:01;100802.03;;;4.50;93.61
37778;BME280;23615;51.506;7.678;2023-03-04T08:29:27;100800.22;;;4.51;94.64
37778;BME280;23615;51.506;7.678;2023-03-04T08:31:53;100806.81;;;4.79;94.19
37778;BME280;23615;51.506;7.678;2023-03-04T08:34:21;100801.81;;;4.93;93.17
37778;BME280;23615;51.506;7.678;2023-03-04T08:36:47;100792.44;;;4.82;93.19
37778;BME280;23615;51.506;7.678;2023-03-04T08:39:13;100799.53;;;4.98;92.77
37778;BME280;23615;51.506;7.678;2023-03-04T08:41:39;100791.75;;;4.88;92.50
37778;BME280;23615;51.506;7.678;2023-03-04T08:44:05;100785.31;;;4.91;92.79
37778;BME280;23615;51.506;7.678;2023-03-04T08:46:32;100797.03;;;5.04;91.97
37778;BME280;23615;51.506;7.678;2023-03-04T08:48:57;100794.88;;;5.08;91.45
37778;BME280;23615;51.506;7.678;2023-03-04T08:51:23;100797.88;;;4.97;91.75
37778;BME280;23615;51.506;7.678;2023-03-04T08:53:49;100798.00;;;5.11;92.46
37778;BME280;23615;51.506;7.678;2023-03-04T08:56:14;100799.16;;;5.17;92.27
37778;BME280;23615;51.506;7.678;2023-03-04T08:58:41;100799.19;;;5.09;91.41
37778;BME280;23615;51.506;7.678;2023-03-04T09:01:08;100810.69;;;5.24;92.95
37778;BME280;23615;51.506;7.678;2023-03-04T09:03:34;100801.88;;;5.40;91.40
37778;BME280;23615;51.506;7.678;2023-03-04T09:06:01;100801.75;;;5.33;91.39
37778;BME280;23615;51.506;7.678;2023-03-04T09:08:26;100802.25;;;5.20;90.77
37778;BME280;23615;51.506;7.678;2023-03-04T09:10:53;100802.25;;;5.37;91.87
37778;BME280;23615;51.506;7.678;2023-03-04T09:13:18;100793.78;;;5.41;92.34
37778;BME280;23615;51.506;7.678;2023-03-04T09:15:46;100796.59;;;5.40;91.96
37778;BME280;23615;51.506;7.678;2023-03-04T09:18:12;100794.59;;;5.42;92.43
37778;BME280;23615;51.506;7.678;2023-03-04T09:20:37;100795.25;;;5.44;92.83
37778;BME280;23615;51.506;7.678;2023-03-04T09:23:03;100798.16;;;5.57;92.33
37778;BME280;23615;51.506;7.678;2023-03-04T09:25:28;100791.09;;;5.49;93.04
37778;BME280;23615;51.506;7.678;2023-03-04T09:27:54;100794.78;;;5.32;92.31
37778;BME280;23615;51.506;7.678;2023-03-04T09:30:19;100798.72;;;5.44;94.19
37778;BME280;23615;51.506;7.678;2023-03-04T09:32:45;100800.91;;;5.33;94.04
37778;BME280;23615;51.506;7.678;2023-03-04T09:35:10;100803.25;;;5.19;94.98
37778;BME280;23615;51.506;7.678;2023-03-04T09:37:35;100798.44;;;5.31;95.06
37778;BME280;23615;51.506;7.678;2023-03-04T09:40:01;100794.75;;;5.40;95.58
37778;BME280;23615;51.506;7.678;2023-03-04T09:42:32;100795.41;;;5.50;95.79
37778;BME280;23615;51.506;7.678;2023-03-04T09:44:59;100792.47;;;5.29;95.89
37778;BME280;23615;51.506;7.678;2023-03-04T09:47:25;100794.00;;;5.23;96.34
37778;BME280;23615;51.506;7.678;2023-03-04T09:49:58;100798.13;;;5.26;96.76
37778;BME280;23615;51.506;7.678;2023-03-04T09:52:43;100793.16;;;5.31;96.52
37778;BME280;23615;51.506;7.678;2023-03-04T09:55:26;100790.44;;;5.47;97.29
37778;BME280;23615;51.506;7.678;2023-03-04T10:00:24;100782.19;;;5.42;96.48
37778;BME280;23615;51.506;7.678;2023-03-04T10:03:05;100794.59;;;5.42;97.96
37778;BME280;23615;51.506;7.678;2023-03-04T10:08:35;100781.41;;;5.34;97.22
37778;BME280;23615;51.506;7.678;2023-03-04T10:11:07;100785.22;;;5.31;97.77
37778;BME280;23615;51.506;7.678;2023-03-04T10:13:41;100782.84;;;5.44;96.86
37778;BME280;23615;51.506;7.678;2023-03-04T10:16:11;100790.44;;;5.47;96.92
37778;BME280;23615;51.506;7.678;2023-03-04T10:18:44;100784.81;;;5.50;96.57
37778;BME280;23615;51.506;7.678;2023-03-04T10:21:20;100786.09;;;5.62;95.95
37778;BME280;23615;51.506;7.678;2023-03-04T10:23:48;100784.81;;;5.50;95.68
37778;BME280;23615;51.506;7.678;2023-03-04T10:26:16;100781.13;;;5.59;95.05
37778;BME280;23615;51.506;7.678;2023-03-04T10:28:41;100781.13;;;5.59;95.13
37778;BME280;23615;51.506;7.678;2023-03-04T10:33:41;100786.72;;;5.64;95.47
37778;BME280;23615;51.506;7.678;2023-03-04T10:36:35;100782.91;;;5.67;96.23
37778;BME280;23615;51.506;7.678;2023-03-04T10:39:08;100785.34;;;5.77;97.20
37778;BME280;23615;51.506;7.678;2023-03-04T10:41:34;100788.38;;;5.65;97.50
37778;BME280;23615;51.506;7.678;2023-03-04T10:46:39;100774.09;;;5.44;98.89
37778;BME280;23615;51.506;7.678;2023-03-04T10:49:05;100778.19;;;5.54;98.94
37778;BME280;23615;51.506;7.678;2023-03-04T10:51:31;100774.66;;;5.62;98.25
37778;BME280;23615;51.506;7.678;2023-03-04T10:54:05;100776.94;;;5.65;97.54
37778;BME280;23615;51.506;7.678;2023-03-04T10:56:35;100761.28;;;5.63;97.45
37778;BME280;23615;51.506;7.678;2023-03-04T11:01:55;100768.34;;;5.71;97.20
37778;BME280;23615;51.506;7.678;2023-03-04T11:04:25;100765.69;;;5.71;98.10
37778;BME280;23615;51.506;7.678;2023-03-04T11:06:52;100759.50;;;5.48;98.94
37778;BME280;23615;51.506;7.678;2023-03-04T11:09:29;100759.13;;;5.59;99.98
37778;BME280;23615;51.506;7.678;2023-03-04T11:11:58;100755.00;;;5.56;100.00
37778;BME280;23615;51.506;7.678;2023-03-04T11:14:26;100758.69;;;5.47;100.00
37778;BME280;23615;51.506;7.678;2023-03-04T11:16:57;100758.31;;;5.58;100.00
37778;BME280;23615;51.506;7.678;2023-03-04T11:19:30;100755.97;;;5.63;100.00
37778;BME280;23615;51.506;7.678;2023-03-04T11:21:57;100754.66;;;5.59;100.00
37778;BME280;23615;51.506;7.678;2023-03-04T11:24:27;100761.94;;;5.57;100.00
37778;BME280;23615;51.506;7.678;2023-03-04T11:27:05;100752.97;;;5.67;100.00
37778;BME280;23615;51.506;7.678;2023-03-04T11:29:47;100742.75;;;5.86;100.00
37778;BME280;23615;51.506;7.678;2023-03-04T11:32:26;100757.16;;;5.92;100.00
37778;BME280;23615;51.506;7.678;2023-03-04T11:35:15;100746.88;;;5.97;99.12
37778;BME280;23615;51.506;7.678;2023-03-04T11:38:07;100748.19;;;5.93;98.80
37778;BME280;23615;51.506;7.678;2023-03-04T11:40:44;100744.63;;;5.78;99.50
37778;BME280;23615;51.506;7.678;2023-03-04T11:43:16;100745.72;;;5.60;99.78
37778;BME280;23615;51.506;7.678;2023-03-04T11:45:58;100727.84;;;5.62;100.00
37778;BME280;23615;51.506;7.678;2023-03-04T11:51:27;100718.81;;;5.49;100.00
37778;BME280;23615;51.506;7.678;2023-03-04T11:56:35;100718.88;;;5.72;100.00
37778;BME280;23615;51.506;7.678;2023-03-04T11:59:24;100721.59;;;5.55;100.00
37778;BME280;23615;51.506;7.678;2023-03-04T12:05:08;100722.19;;;5.65;100.00
37778;BME280;23615;51.506;7.678;2023-03-04T12:11:01;100711.25;;;5.69;99.80
37778;BME280;23615;51.506;7.678;2023-03-04T12:13:53;100705.84;;;5.85;100.00
37778;BME280;23615;51.506;7.678;2023-03-04T12:16:55;100705.41;;;5.81;100.00
37778;BME280;23615;51.506;7.678;2023-03-04T12:22:46;100688.81;;;5.87;100.00
37778;BME280;23615;51.506;7.678;2023-03-04T12:25:34;100707.66;;;5.92;100.00
37778;BME280;23615;51.506;7.678;2023-03-04T12:30:58;100684.94;;;5.98;100.00
37778;BME280;23615;51.506;7.678;2023-03-04T12:33:54;100680.75;;;6.04;100.00
37778;BME280;23615;51.506;7.678;2023-03-04T12:36:47;100669.56;;;6.16;100.00
37778;BME280;23615;51.506;7.678;2023-03-04T12:39:28;100670.25;;;6.33;99.59
37778;BME280;23615;51.506;7.678;2023-03-04T12:44:49;100661.56;;;6.39;97.69
37778;BME280;23615;51.506;7.678;2023-03-04T12:47:53;100668.41;;;6.33;98.21
37778;BME280;23615;51.506;7.678;2023-03-04T12:53:26;100656.91;;;6.26;98.44
37778;BME280;23615;51.506;7.678;2023-03-04T12:55:55;100658.28;;;6.37;98.24
37778;BME280;23615;51.506;7.678;2023-03-04T12:58:28;100651.34;;;6.36;98.19
37778;BME280;23615;51.506;7.678;2023-03-04T13:01:06;100656.34;;;6.31;97.82
37778;BME280;23615;51.506;7.678;2023-03-04T13:06:24;100641.94;;;6.11;98.58
37778;BME280;23615;51.506;7.678;2023-03-04T13:16:50;100655.53;;;5.85;100.00
37778;BME280;23615;51.506;7.678;2023-03-04T13:22:33;100645.31;;;6.05;100.00
37778;BME280;23615;51.506;7.678;2023-03-04T13:41:20;100636.88;;;6.24;100.00
37778;BME280;23615;51.506;7.678;2023-03-04T13:48:59;100621.16;;;6.22;100.00
37778;BME280;23615;51.506;7.678;2023-03-04T13:51:38;100622.63;;;6.25;99.34
37778;BME280;23615;51.506;7.678;2023-03-04T13:59:34;100620.72;;;6.33;97.52
37778;BME280;23615;51.506;7.678;2023-03-04T14:02:14;100619.34;;;6.37;96.93
37778;BME280;23615;51.506;7.678;2023-03-04T14:04:44;100612.84;;;6.25;96.60
37778;BME280;23615;51.506;7.678;2023-03-04T14:07:36;100616.06;;;6.35;96.73
37778;BME280;23615;51.506;7.678;2023-03-04T14:10:23;100610.84;;;6.27;96.00
37778;BME280;23615;51.506;7.678;2023-03-04T14:12:58;100610.03;;;6.27;96.88
37778;BME280;23615;51.506;7.678;2023-03-04T14:15:29;100601.59;;;6.38;95.69
37778;BME280;23615;51.506;7.678;2023-03-04T14:17:57;100595.03;;;6.49;95.94
37778;BME280;23615;51.506;7.678;2023-03-04T14:20:28;100598.53;;;6.34;96.70
37778;BME280;23615;51.506;7.678;2023-03-04T14:22:54;100608.38;;;6.26;97.28
37778;BME280;23615;51.506;7.678;2023-03-04T14:25:23;100601.59;;;6.38;97.46
37778;BME280;23615;51.506;7.678;2023-03-04T14:27:50;100594.41;;;6.32;96.70